createdAt,value
2018-07-17T00:02:03.606Z,98195.98
2018-07-17T00:04:30.861Z,98192.86
2018-07-17T00:07:08.406Z,98189.81
2018-07-17T00:09:35.709Z,98186.55
2018-07-17T00:12:02.982Z,98190.48
2018-07-17T00:14:30.235Z,98192.69
2018-07-17T00:24:35.646Z,98185.80
2018-07-17T00:27:02.908Z,98183.25
2018-07-17T00:29:30.165Z,98181.19
2018-07-17T00:31:57.447Z,98181.34
2018-07-17T00:34:24.681Z,98175.08
2018-07-17T00:36:51.928Z,98180.10
2018-07-17T00:39:19.143Z,98184.88
2018-07-17T00:41:46.402Z,98179.59
2018-07-17T00:44:13.641Z,98176.26
2018-07-17T00:46:40.906Z,98179.49
2018-07-17T00:49:08.210Z,98181.67
2018-07-17T00:51:35.457Z,98186.31
2018-07-17T00:54:02.714Z,98185.91
2018-07-17T00:56:29.970Z,98185.81
2018-07-17T00:58:57.211Z,98183.93
2018-07-17T01:01:30.137Z,98190.19
2018-07-17T01:04:02.961Z,98188.56
2018-07-17T01:06:35.898Z,98187.70
2018-07-17T01:09:09.759Z,98191.51
2018-07-17T01:11:42.785Z,98191.10
2018-07-17T01:14:28.630Z,98191.87
2018-07-17T01:16:55.945Z,98191.28
2018-07-17T01:19:23.175Z,98193.61
2018-07-17T01:21:50.502Z,98196.26
2018-07-17T01:24:17.728Z,98193.87
2018-07-17T01:26:45.006Z,98197.47
2018-07-17T01:29:12.218Z,98189.83
2018-07-17T01:31:39.616Z,98191.61
2018-07-17T01:34:06.857Z,98189.92
2018-07-17T01:36:34.216Z,98195.63
2018-07-17T01:39:01.489Z,98188.74
2018-07-17T01:41:28.777Z,98189.47
2018-07-17T01:43:56.043Z,98191.70
2018-07-17T01:46:23.283Z,98193.97
2018-07-17T01:48:50.575Z,98190.16
2018-07-17T01:51:17.919Z,98187.05
2018-07-17T01:53:45.364Z,98179.86
2018-07-17T01:56:12.591Z,98187.82
2018-07-17T01:58:39.854Z,98186.19
2018-07-17T02:01:07.304Z,98181.09
2018-07-17T02:03:34.582Z,98184.16
2018-07-17T02:06:01.846Z,98182.98
2018-07-17T02:08:29.263Z,98185.72
2018-07-17T02:10:56.504Z,98176.74
2018-07-17T02:13:23.764Z,98174.87
2018-07-17T02:16:11.470Z,98178.38
2018-07-17T02:18:38.899Z,98182.83
2018-07-17T02:21:06.441Z,98178.63
2018-07-17T02:23:33.728Z,98177.91
2018-07-17T02:26:01.039Z,98180.34
2018-07-17T02:28:28.322Z,98184.70
2018-07-17T02:30:55.604Z,98176.36
2018-07-17T02:33:22.830Z,98172.09
2018-07-17T02:35:50.099Z,98179.70
2018-07-17T02:38:17.340Z,98173.88
2018-07-17T02:40:44.570Z,98179.18
2018-07-17T02:43:11.815Z,98174.88
2018-07-17T02:45:39.079Z,98180.26
2018-07-17T02:48:06.311Z,98175.20
2018-07-17T02:50:33.592Z,98174.65
2018-07-17T02:53:00.841Z,98174.35
2018-07-17T02:55:28.141Z,98176.75
2018-07-17T02:57:55.386Z,98187.19
2018-07-17T03:00:22.724Z,98187.27
2018-07-17T03:02:49.985Z,98186.23
2018-07-17T03:05:17.330Z,98188.38
2018-07-17T03:07:44.696Z,98190.08
2018-07-17T03:10:12.101Z,98192.09
2018-07-17T03:12:39.426Z,98195.31
2018-07-17T03:15:06.774Z,98192.27
2018-07-17T03:17:34.103Z,98186.67
2018-07-17T03:20:03.333Z,98188.93
2018-07-17T03:22:31.898Z,98182.22
2018-07-17T03:25:00.412Z,98186.19
2018-07-17T03:27:27.903Z,98188.93
2018-07-17T03:29:55.201Z,98189.87
2018-07-17T03:32:22.519Z,98188.38
2018-07-17T03:34:49.838Z,98190.55
2018-07-17T03:37:17.187Z,98194.62
2018-07-17T03:39:45.078Z,98199.15
2018-07-17T03:42:12.516Z,98202.19
2018-07-17T03:44:39.844Z,98208.81
2018-07-17T03:47:07.160Z,98199.92
2018-07-17T03:49:34.467Z,98205.78
2018-07-17T03:52:01.981Z,98205.14
2018-07-17T03:54:29.313Z,98204.19
2018-07-17T03:56:56.882Z,98204.09
2018-07-17T03:59:24.318Z,98207.76
2018-07-17T04:01:51.839Z,98210.81
2018-07-17T04:04:19.236Z,98210.58
2018-07-17T04:06:46.573Z,98212.77
2018-07-17T04:09:14.479Z,98199.73
2018-07-17T04:11:41.821Z,98204.48
2018-07-17T04:14:09.186Z,98198.53
2018-07-17T04:16:41.073Z,98201.89
2018-07-17T04:19:08.642Z,98205.52
2018-07-17T04:21:35.978Z,98196.86
2018-07-17T04:24:03.411Z,98199.48
2018-07-17T04:26:30.787Z,98204.05
2018-07-17T04:28:58.142Z,98209.98
2018-07-17T04:31:25.414Z,98210.66
2018-07-17T04:33:52.816Z,98210.52
2018-07-17T04:36:20.163Z,98213.59
2018-07-17T04:38:47.565Z,98215.77
2018-07-17T04:41:14.903Z,98216.78
2018-07-17T04:43:42.248Z,98217.23
2018-07-17T04:46:09.593Z,98230.98
2018-07-17T04:48:37.766Z,98227.39
2018-07-17T04:51:05.346Z,98230.09
2018-07-17T04:53:32.651Z,98225.94
2018-07-17T04:56:00.041Z,98222.28
2018-07-17T04:58:27.332Z,98221.92
2018-07-17T05:00:54.703Z,98214.38
2018-07-17T05:03:21.999Z,98217.72
2018-07-17T05:05:49.368Z,98217.42
2018-07-17T05:08:16.811Z,98212.59
2018-07-17T05:10:44.158Z,98215.67
2018-07-17T05:13:11.508Z,98217.78
2018-07-17T05:15:38.817Z,98220.05
2018-07-17T05:18:06.123Z,98221.38
2018-07-17T05:20:33.501Z,98225.37
2018-07-17T05:23:00.854Z,98236.59
2018-07-17T05:25:28.270Z,98231.22
2018-07-17T05:27:56.424Z,98236.19
2018-07-17T05:30:23.859Z,98242.80
2018-07-17T05:32:51.177Z,98238.58
2018-07-17T05:35:18.561Z,98231.99
2018-07-17T05:37:45.908Z,98236.24
2018-07-17T05:40:13.260Z,98234.77
2018-07-17T05:42:40.696Z,98235.30
2018-07-17T05:45:08.060Z,98239.48
2018-07-17T05:47:39.937Z,98234.54
2018-07-17T05:50:07.463Z,98235.06
2018-07-17T05:52:35.885Z,98230.94
2018-07-17T05:55:03.521Z,98238.48
2018-07-17T05:57:31.132Z,98238.85
2018-07-17T05:59:58.571Z,98234.48
2018-07-17T06:02:25.854Z,98235.29
2018-07-17T06:04:53.206Z,98232.29
2018-07-17T06:07:20.561Z,98227.80
2018-07-17T06:09:47.899Z,98230.13
2018-07-17T06:12:15.298Z,98235.39
2018-07-17T06:14:42.604Z,98239.59
2018-07-17T06:17:10.243Z,98242.17
2018-07-17T06:19:37.542Z,98244.83
2018-07-17T06:22:04.958Z,98239.34
2018-07-17T06:24:32.307Z,98239.52
2018-07-17T06:26:59.618Z,98241.09
2018-07-17T06:29:26.943Z,98240.52
2018-07-17T06:31:54.214Z,98244.86
2018-07-17T06:34:21.532Z,98246.44
2018-07-17T06:36:48.866Z,98236.22
2018-07-17T06:39:16.669Z,98229.70
2018-07-17T06:41:44.019Z,98237.99
2018-07-17T06:44:11.325Z,98239.97
2018-07-17T06:46:38.659Z,98238.28
2018-07-17T06:49:05.987Z,98230.71
2018-07-17T06:51:33.334Z,98237.02
2018-07-17T06:54:00.668Z,98235.88
2018-07-17T06:56:27.998Z,98239.52
2018-07-17T06:58:55.421Z,98234.41
2018-07-17T07:01:22.709Z,98233.75
2018-07-17T07:03:50.044Z,98225.68
2018-07-17T07:06:17.323Z,98225.03
2018-07-17T07:08:44.635Z,98228.91
2018-07-17T07:11:12.588Z,98230.36
2018-07-17T07:13:40.015Z,98225.41
2018-07-17T07:16:08.307Z,98226.39
2018-07-17T07:18:35.622Z,98230.47
2018-07-17T07:21:02.968Z,98227.80
2018-07-17T07:23:30.226Z,98224.77
2018-07-17T07:25:57.641Z,98226.70
2018-07-17T07:28:24.972Z,98227.31
2018-07-17T07:30:52.324Z,98221.38
2018-07-17T07:33:20.094Z,98218.23
2018-07-17T07:35:47.551Z,98215.92
2018-07-17T07:38:14.979Z,98215.40
2018-07-17T07:40:42.392Z,98216.84
2018-07-17T07:43:10.028Z,98210.89
2018-07-17T07:45:37.371Z,98204.66
2018-07-17T07:48:04.911Z,98206.64
2018-07-17T07:50:32.334Z,98201.75
2018-07-17T07:52:59.622Z,98200.92
2018-07-17T07:55:27.211Z,98201.61
2018-07-17T07:57:54.533Z,98198.69
2018-07-17T08:00:21.835Z,98199.04
2018-07-17T08:02:49.153Z,98204.30
2018-07-17T08:05:16.549Z,98200.75
2018-07-17T08:07:43.967Z,98199.22
2018-07-17T08:10:11.333Z,98202.45
2018-07-17T08:12:38.803Z,98196.89
2018-07-17T08:15:06.200Z,98193.47
2018-07-17T08:17:33.579Z,98192.78
2018-07-17T08:20:00.877Z,98191.19
2018-07-17T08:22:28.886Z,98199.77
2018-07-17T08:24:56.277Z,98196.02
2018-07-17T08:27:23.675Z,98197.87
2018-07-17T08:29:51.078Z,98198.69
2018-07-17T08:32:18.438Z,98190.62
2018-07-17T08:34:45.730Z,98195.92
2018-07-17T08:37:16.666Z,98196.06
2018-07-17T08:39:43.986Z,98199.02
2018-07-17T08:42:11.493Z,98200.89
2018-07-17T08:44:38.781Z,98190.91
2018-07-17T08:47:06.151Z,98195.82
2018-07-17T08:49:33.543Z,98195.34
2018-07-17T08:52:00.843Z,98189.88
2018-07-17T08:54:28.247Z,98192.27
2018-07-17T08:56:55.513Z,98193.39
2018-07-17T08:59:22.900Z,98190.84
2018-07-17T09:01:50.375Z,98190.23
2018-07-17T09:04:17.927Z,98189.89
2018-07-17T09:06:45.209Z,98182.26
2018-07-17T09:09:12.583Z,98184.02
2018-07-17T09:11:40.449Z,98186.11
2018-07-17T09:14:07.833Z,98185.39
2018-07-17T09:16:35.148Z,98182.80
2018-07-17T09:19:02.565Z,98191.45
2018-07-17T09:21:29.857Z,98191.45
2018-07-17T09:23:57.191Z,98182.38
2018-07-17T09:26:24.517Z,98189.48
2018-07-17T09:28:51.852Z,98190.76
2018-07-17T09:31:19.215Z,98182.06
2018-07-17T09:33:46.553Z,98187.42
2018-07-17T09:36:13.878Z,98181.22
2018-07-17T09:38:41.216Z,98182.73
2018-07-17T09:41:08.680Z,98179.95
2018-07-17T09:43:36.052Z,98173.64
2018-07-17T09:46:03.453Z,98177.72
2018-07-17T09:48:30.745Z,98176.48
2018-07-17T09:50:59.059Z,98171.33
2018-07-17T09:53:26.578Z,98172.48
2018-07-17T09:55:53.887Z,98172.50
2018-07-17T09:58:22.271Z,98174.97
2018-07-17T10:00:55.292Z,98173.77
2018-07-17T10:03:23.166Z,98169.52
2018-07-17T10:05:50.464Z,98173.81
2018-07-17T10:08:17.895Z,98166.20
2018-07-17T10:10:45.250Z,98171.56
2018-07-17T10:13:12.557Z,98165.09
2018-07-17T10:15:39.878Z,98167.55
2018-07-17T10:18:07.246Z,98163.79
2018-07-17T10:20:34.552Z,98169.08
2018-07-17T10:23:01.919Z,98170.83
2018-07-17T10:25:29.283Z,98162.28
2018-07-17T10:27:56.558Z,98161.92
2018-07-17T10:30:23.900Z,98166.75
2018-07-17T10:32:51.230Z,98164.03
2018-07-17T10:35:18.579Z,98167.88
2018-07-17T10:37:45.972Z,98161.56
2018-07-17T10:40:13.450Z,98156.72
2018-07-17T10:42:41.738Z,98158.34
2018-07-17T10:45:09.118Z,98150.22
2018-07-17T10:47:36.548Z,98149.17
2018-07-17T10:50:03.922Z,98151.80
2018-07-17T10:52:31.505Z,98151.48
2018-07-17T10:54:59.030Z,98146.06
2018-07-17T10:57:26.392Z,98144.92
2018-07-17T10:59:53.735Z,98147.23
2018-07-17T11:02:21.138Z,98137.15
2018-07-17T11:04:48.581Z,98145.80
2018-07-17T11:07:16.446Z,98146.65
2018-07-17T11:09:43.760Z,98144.44
2018-07-17T11:12:11.067Z,98140.55
2018-07-17T11:14:38.518Z,98128.30
2018-07-17T11:17:06.726Z,98131.30
2018-07-17T11:19:34.008Z,98135.06
2018-07-17T11:22:01.457Z,98130.44
2018-07-17T11:24:28.766Z,98139.73
2018-07-17T11:26:56.122Z,98130.50
2018-07-17T11:29:24.240Z,98125.18
2018-07-17T11:31:51.556Z,98113.26
2018-07-17T11:34:18.971Z,98110.45
2018-07-17T11:36:46.317Z,98118.59
2018-07-17T11:39:13.649Z,98118.41
2018-07-17T11:41:41.027Z,98114.54
2018-07-17T11:44:08.403Z,98121.79
2018-07-17T11:46:35.733Z,98120.80
2018-07-17T11:49:03.120Z,98113.31
2018-07-17T11:51:30.456Z,98113.43
2018-07-17T11:53:57.814Z,98109.73
2018-07-17T11:56:25.344Z,98113.40
2018-07-17T11:58:52.737Z,98115.03
2018-07-17T12:01:21.161Z,98109.50
2018-07-17T12:03:48.494Z,98108.98
2018-07-17T12:06:15.788Z,98105.74
2018-07-17T12:08:43.113Z,98101.53
2018-07-17T12:11:11.077Z,98098.64
2018-07-17T12:13:38.450Z,98092.12
2018-07-17T12:16:05.900Z,98089.73
2018-07-17T12:18:33.242Z,98086.48
2018-07-17T12:21:01.150Z,98084.19
2018-07-17T12:23:28.519Z,98097.03
2018-07-17T12:25:55.852Z,98093.38
2018-07-17T12:28:23.204Z,98078.05
2018-07-17T12:30:50.879Z,98086.39
2018-07-17T12:33:18.147Z,98086.78
2018-07-17T12:35:46.142Z,98081.85
2018-07-17T12:38:13.446Z,98081.03
2018-07-17T12:40:40.801Z,98079.06
2018-07-17T12:43:08.099Z,98076.41
2018-07-17T12:45:35.459Z,98078.68
2018-07-17T12:48:02.855Z,98079.75
2018-07-17T12:50:30.214Z,98065.81
2018-07-17T12:52:58.519Z,98063.88
2018-07-17T12:55:25.980Z,98075.31
2018-07-17T12:57:54.926Z,98066.41
2018-07-17T13:00:22.302Z,98076.77
2018-07-17T13:02:50.047Z,98077.53
2018-07-17T13:05:18.438Z,98075.22
2018-07-17T13:08:02.059Z,98080.84
2018-07-17T13:10:29.459Z,98081.96
2018-07-17T13:12:56.899Z,98075.39
2018-07-17T13:15:24.248Z,98072.47
2018-07-17T13:17:51.612Z,98089.98
2018-07-17T13:20:19.050Z,98082.65
2018-07-17T13:22:46.390Z,98083.59
2018-07-17T13:25:14.430Z,98084.29
2018-07-17T13:27:41.758Z,98083.30
2018-07-17T13:30:09.086Z,98089.17
2018-07-17T13:32:36.694Z,98088.85
2018-07-17T13:35:04.167Z,98086.77
2018-07-17T13:37:31.766Z,98082.22
2018-07-17T13:39:59.112Z,98074.14
2018-07-17T13:42:26.450Z,98078.05
2018-07-17T13:44:53.901Z,98076.88
2018-07-17T13:47:21.180Z,98079.34
2018-07-17T13:49:49.219Z,98067.33
2018-07-17T13:52:16.593Z,98071.83
2018-07-17T13:54:43.916Z,98070.80
2018-07-17T13:57:11.248Z,98073.64
2018-07-17T13:59:38.621Z,98072.77
2018-07-17T14:02:06.811Z,98071.73
2018-07-17T14:04:34.148Z,98074.91
2018-07-17T14:07:01.662Z,98072.77
2018-07-17T14:09:29.087Z,98069.52
2018-07-17T14:11:56.411Z,98081.20
2018-07-17T14:14:24.456Z,98075.28
2018-07-17T14:16:52.066Z,98076.95
2018-07-17T14:19:19.358Z,98067.16
2018-07-17T14:21:46.674Z,98073.13
2018-07-17T14:24:14.185Z,98064.95
2018-07-17T14:26:41.487Z,98069.29
2018-07-17T14:29:08.914Z,98074.91
2018-07-17T14:31:36.414Z,98069.92
2018-07-17T14:34:03.787Z,98073.08
2018-07-17T14:36:31.118Z,98071.73
2018-07-17T14:38:58.444Z,98063.33
2018-07-17T14:41:26.211Z,98064.61
2018-07-17T14:43:53.572Z,98064.09
2018-07-17T14:46:20.922Z,98071.14
2018-07-17T14:48:48.287Z,98069.14
2018-07-17T14:51:15.639Z,98057.25
2018-07-17T14:53:42.981Z,98063.86
2018-07-17T14:56:10.512Z,98064.64
2018-07-17T14:58:37.847Z,98069.73
2018-07-17T15:01:05.910Z,98070.60
2018-07-17T15:03:33.599Z,98060.95
2018-07-17T15:06:01.123Z,98071.55
2018-07-17T15:08:28.855Z,98069.67
2018-07-17T15:10:57.304Z,98069.20
2018-07-17T15:13:24.661Z,98068.64
2018-07-17T15:15:52.087Z,98069.52
2018-07-17T15:18:20.056Z,98065.16
2018-07-17T15:20:47.381Z,98059.83
2018-07-17T15:23:14.721Z,98065.92
2018-07-17T15:25:42.103Z,98062.17
2018-07-17T15:28:09.425Z,98053.38
2018-07-17T15:30:36.854Z,98056.41
2018-07-17T15:33:04.627Z,98058.19
2018-07-17T15:35:33.672Z,98059.06
2018-07-17T15:38:13.829Z,98049.01
2018-07-17T15:40:41.269Z,98055.39
2018-07-17T15:43:09.301Z,98042.25
2018-07-17T15:45:36.766Z,98059.91
2018-07-17T15:48:04.057Z,98057.30
2018-07-17T15:50:32.654Z,98061.59
2018-07-17T15:53:00.107Z,98059.63
2018-07-17T15:55:27.424Z,98054.56
2018-07-17T15:57:54.999Z,98057.28
2018-07-17T16:00:22.352Z,98058.13
2018-07-17T16:02:49.745Z,98057.97
2018-07-17T16:05:17.574Z,98054.25
2018-07-17T16:07:45.097Z,98049.87
2018-07-17T16:10:12.443Z,98063.77
2018-07-17T16:12:39.846Z,98062.59
2018-07-17T16:15:07.334Z,98065.97
2018-07-17T16:17:35.045Z,98054.47
2018-07-17T16:20:03.344Z,98069.70
2018-07-17T16:22:30.581Z,98068.20
2018-07-17T16:24:57.984Z,98066.50
2018-07-17T16:27:25.374Z,98075.13
2018-07-17T16:29:52.749Z,98070.55
2018-07-17T16:32:20.132Z,98063.11
2018-07-17T16:34:47.449Z,98065.83
2018-07-17T16:37:14.783Z,98068.55
2018-07-17T16:39:42.210Z,98064.48
2018-07-17T16:42:09.569Z,98068.05
2018-07-17T16:44:37.089Z,98067.36
2018-07-17T16:47:04.380Z,98068.03
2018-07-17T16:49:31.718Z,98069.87
2018-07-17T16:51:59.129Z,98067.68
2018-07-17T16:54:26.460Z,98070.21
2018-07-17T16:56:53.794Z,98069.53
2018-07-17T16:59:21.209Z,98060.53
2018-07-17T17:01:48.590Z,98061.72
2018-07-17T17:04:15.938Z,98067.80
2018-07-17T17:06:43.279Z,98068.81
2018-07-17T17:09:11.568Z,98065.41
2018-07-17T17:11:38.871Z,98060.80
2018-07-17T17:14:06.265Z,98067.05
2018-07-17T17:16:33.578Z,98067.45
2018-07-17T17:19:00.941Z,98071.46
2018-07-17T17:21:28.463Z,98073.30
2018-07-17T17:23:55.853Z,98072.94
2018-07-17T17:26:24.238Z,98070.00
2018-07-17T17:28:51.551Z,98066.66
2018-07-17T17:31:18.957Z,98071.02
2018-07-17T17:33:46.288Z,98075.05
2018-07-17T17:36:13.634Z,98074.27
2018-07-17T17:38:40.980Z,98072.23
2018-07-17T17:41:08.351Z,98074.91
2018-07-17T17:43:35.710Z,98071.09
2018-07-17T17:46:03.246Z,98076.30
2018-07-17T17:48:30.572Z,98077.85
2018-07-17T17:50:57.917Z,98077.30
2018-07-17T17:53:26.425Z,98074.38
2018-07-17T17:55:54.436Z,98080.92
2018-07-17T17:58:21.720Z,98084.41
2018-07-17T18:00:49.362Z,98085.12
2018-07-17T18:03:16.917Z,98083.31
2018-07-17T18:05:45.422Z,98082.56
2018-07-17T18:08:12.867Z,98083.84
2018-07-17T18:10:40.299Z,98090.88
2018-07-17T18:13:08.120Z,98088.16
2018-07-17T18:15:35.734Z,98088.77
2018-07-17T18:18:03.838Z,98086.73
2018-07-17T18:20:33.609Z,98094.09
2018-07-17T18:23:01.268Z,98098.47
2018-07-17T18:25:28.625Z,98093.33
2018-07-17T18:27:56.022Z,98099.69
2018-07-17T18:30:23.334Z,98104.63
2018-07-17T18:32:51.042Z,98101.67
2018-07-17T18:35:18.440Z,98109.02
2018-07-17T18:37:46.526Z,98111.19
2018-07-17T18:40:13.902Z,98113.30
2018-07-17T18:42:42.095Z,98115.24
2018-07-17T18:45:09.487Z,98123.11
2018-07-17T18:47:39.264Z,98128.59
2018-07-17T18:50:12.869Z,98132.35
2018-07-17T18:52:34.484Z,98135.88
2018-07-17T18:55:01.860Z,98132.22
2018-07-17T18:57:29.287Z,98140.42
2018-07-17T18:59:56.734Z,98142.77
2018-07-17T19:02:24.231Z,98147.32
2018-07-17T19:04:52.825Z,98148.55
2018-07-17T19:07:20.232Z,98157.23
2018-07-17T19:09:48.443Z,98156.37
2018-07-17T19:12:16.295Z,98156.33
2018-07-17T19:14:43.824Z,98159.13
2018-07-17T19:17:11.394Z,98166.81
2018-07-17T19:19:38.854Z,98167.37
2018-07-17T19:22:06.788Z,98174.66
2018-07-17T19:24:34.159Z,98182.39
2018-07-17T19:27:02.985Z,98185.80
2018-07-17T19:29:30.416Z,98181.95
2018-07-17T19:31:58.913Z,98191.47
2018-07-17T19:34:26.576Z,98187.34
2018-07-17T19:36:54.768Z,98189.73
2018-07-17T19:39:22.103Z,98193.56
2018-07-17T19:41:49.421Z,98197.95
2018-07-17T19:44:16.815Z,98194.20
2018-07-17T19:46:44.111Z,98199.59
2018-07-17T19:49:11.462Z,98201.19
2018-07-17T19:51:38.789Z,98204.53
2018-07-17T19:54:06.139Z,98203.53
2018-07-17T19:56:33.562Z,98208.11
2018-07-17T19:59:00.974Z,98206.77
2018-07-17T20:01:28.309Z,98207.02
2018-07-17T20:03:55.634Z,98207.66
2018-07-17T20:06:23.055Z,98210.75
2018-07-17T20:08:50.391Z,98206.44
2018-07-17T20:11:17.850Z,98210.09
2018-07-17T20:13:45.181Z,98209.67
2018-07-17T20:16:12.486Z,98216.58
2018-07-17T20:18:39.761Z,98217.22
2018-07-17T20:21:07.075Z,98218.73
2018-07-17T20:23:34.562Z,98215.59
2018-07-17T20:26:01.994Z,98222.48
2018-07-17T20:28:29.309Z,98220.00
2018-07-17T20:30:56.821Z,98222.02
2018-07-17T20:33:24.089Z,98222.17
2018-07-17T20:35:51.325Z,98221.85
2018-07-17T20:38:18.610Z,98218.97
2018-07-17T20:40:45.906Z,98216.72
2018-07-17T20:43:13.177Z,98221.12
2018-07-17T20:45:40.413Z,98218.35
2018-07-17T20:48:07.693Z,98217.14
2018-07-17T20:50:34.915Z,98222.18
2018-07-17T20:53:02.226Z,98213.29
2018-07-17T20:55:29.459Z,98216.48
2018-07-17T20:57:56.739Z,98224.28
2018-07-17T21:00:23.992Z,98227.34
2018-07-17T21:02:51.396Z,98225.55
2018-07-17T21:05:18.661Z,98228.73
2018-07-17T21:07:45.935Z,98229.73
2018-07-17T21:10:13.178Z,98227.41
2018-07-17T21:12:40.426Z,98229.78
2018-07-17T21:15:07.707Z,98229.66
2018-07-17T21:17:34.969Z,98232.83
2018-07-17T21:20:02.228Z,98234.08
2018-07-17T21:22:29.519Z,98242.63
2018-07-17T21:24:56.763Z,98243.88
2018-07-17T21:27:24.049Z,98239.75
2018-07-17T21:29:51.311Z,98239.97
2018-07-17T21:32:18.570Z,98243.27
2018-07-17T21:34:45.809Z,98250.31
2018-07-17T21:37:13.061Z,98252.14
2018-07-17T21:39:40.318Z,98257.98
2018-07-17T21:42:07.676Z,98255.30
2018-07-17T21:44:34.944Z,98265.58
2018-07-17T21:47:02.282Z,98266.59
2018-07-17T21:49:29.561Z,98268.23
2018-07-17T21:51:56.809Z,98264.22
2018-07-17T21:54:24.259Z,98266.86
2018-07-17T21:56:51.501Z,98274.98
2018-07-17T21:59:19.129Z,98272.38
2018-07-17T22:01:46.366Z,98273.16
2018-07-17T22:04:13.625Z,98267.14
2018-07-17T22:06:40.849Z,98269.53
2018-07-17T22:09:10.130Z,98267.70
2018-07-17T22:11:37.375Z,98272.03
2018-07-17T22:14:04.747Z,98274.70
2018-07-17T22:16:32.006Z,98277.58
2018-07-17T22:18:59.244Z,98269.78
2018-07-17T22:21:26.493Z,98276.84
2018-07-17T22:23:53.726Z,98273.86
2018-07-17T22:26:23.134Z,98276.23
2018-07-17T22:28:50.374Z,98275.12
2018-07-17T22:31:17.654Z,98282.01
2018-07-17T22:33:44.855Z,98275.69
2018-07-17T22:36:12.174Z,98287.36
2018-07-17T22:38:39.398Z,98280.42
2018-07-17T22:41:06.706Z,98273.79
2018-07-17T22:43:33.949Z,98288.03
2018-07-17T22:46:01.194Z,98285.90
2018-07-17T22:48:28.406Z,98291.87
2018-07-17T22:50:55.683Z,98284.70
2018-07-17T22:53:23.008Z,98283.76
2018-07-17T22:55:50.324Z,98286.44
2018-07-17T22:58:17.574Z,98284.45
2018-07-17T23:00:44.792Z,98287.48
2018-07-17T23:03:12.109Z,98284.19
2018-07-17T23:05:39.349Z,98290.59
2018-07-17T23:08:06.687Z,98294.84
2018-07-17T23:10:33.918Z,98301.04
2018-07-17T23:13:01.200Z,98298.48
2018-07-17T23:15:28.461Z,98293.02
2018-07-17T23:17:55.730Z,98295.38
2018-07-17T23:20:22.973Z,98299.33
2018-07-17T23:22:54.235Z,98302.61
2018-07-17T23:25:22.751Z,98305.65
2018-07-17T23:27:49.957Z,98306.02
2018-07-17T23:30:17.673Z,98320.12
2018-07-17T23:32:45.100Z,98324.26
2018-07-17T23:35:12.338Z,98321.33
2018-07-17T23:37:39.558Z,98323.29
2018-07-17T23:40:06.818Z,98324.00
2018-07-17T23:42:34.658Z,98327.52
2018-07-17T23:45:01.895Z,98327.89
2018-07-17T23:47:29.183Z,98329.83
2018-07-17T23:49:56.454Z,98333.64
2018-07-17T23:52:23.665Z,98336.46
2018-07-17T23:54:50.917Z,98339.73
2018-07-17T23:57:18.115Z,98331.81
2018-07-17T23:59:45.374Z,98333.10
